sensor_id;sensor_type;location;lat;lon;timestamp;pressure;altitude;pressure_sealevel;temperature;humidity
7109;BME280;29079;41.930;25.558;2023-08-06T00:00:09;98208.38;;;26.90;73.43
7109;BME280;29079;41.930;25.558;2023-08-06T00:02:55;98209.16;;;26.23;76.88
7109;BME280;29079;41.930;25.558;2023-08-06T00:05:44;98202.06;;;26.48;75.44
7109;BME280;29079;41.930;25.558;2023-08-06T00:08:30;98207.78;;;26.31;76.50
7109;BME280;29079;41.930;25.558;2023-08-06T00:11:17;98210.78;;;26.30;76.28
7109;BME280;29079;41.930;25.558;2023-08-06T00:14:03;98214.06;;;26.27;77.11
7109;BME280;29079;41.930;25.558;2023-08-06T00:16:50;98205.66;;;26.80;74.50
7109;BME280;29079;41.930;25.558;2023-08-06T00:19:37;98216.50;;;26.08;78.07
7109;BME280;29079;41.930;25.558;2023-08-06T00:22:24;98220.38;;;26.37;75.88
7109;BME280;29079;41.930;25.558;2023-08-06T00:25:11;98221.47;;;26.26;76.68
7109;BME280;29079;41.930;25.558;2023-08-06T00:27:58;98223.72;;;26.75;74.07
7109;BME280;29079;41.930;25.558;2023-08-06T00:30:44;98220.66;;;26.51;76.13
7109;BME280;29079;41.930;25.558;2023-08-06T00:33:31;98210.22;;;26.07;78.57
7109;BME280;29079;41.930;25.558;2023-08-06T00:36:17;98210.78;;;26.19;78.12
7109;BME280;29079;41.930;25.558;2023-08-06T00:39:05;98217.34;;;26.23;78.14
7109;BME280;29079;41.930;25.558;2023-08-06T00:41:52;98216.41;;;25.87;79.77
7109;BME280;29079;41.930;25.558;2023-08-06T00:44:39;98213.41;;;25.94;79.25
7109;BME280;29079;41.930;25.558;2023-08-06T00:47:25;98221.06;;;25.92;78.37
7109;BME280;29079;41.930;25.558;2023-08-06T00:50:12;98213.72;;;25.97;79.40
7109;BME280;29079;41.930;25.558;2023-08-06T00:52:59;98215.19;;;26.31;78.22
7109;BME280;29079;41.930;25.558;2023-08-06T00:55:48;98212.50;;;25.67;81.20
7109;BME280;29079;41.930;25.558;2023-08-06T00:58:35;98205.72;;;25.80;81.03
7109;BME280;29079;41.930;25.558;2023-08-06T01:01:23;98200.38;;;26.11;79.18
7109;BME280;29079;41.930;25.558;2023-08-06T01:04:10;98199.75;;;25.88;79.49
7109;BME280;29079;41.930;25.558;2023-08-06T01:07:03;98200.84;;;25.98;79.54
7109;BME280;29079;41.930;25.558;2023-08-06T01:09:57;98189.06;;;25.82;81.21
7109;BME280;29079;41.930;25.558;2023-08-06T01:12:53;98180.88;;;25.77;81.68
7109;BME280;29079;41.930;25.558;2023-08-06T01:15:47;98167.13;;;25.51;82.56
7109;BME280;29079;41.930;25.558;2023-08-06T01:18:35;98163.34;;;25.62;82.66
7109;BME280;29079;41.930;25.558;2023-08-06T01:21:25;98167.84;;;26.10;78.04
7109;BME280;29079;41.930;25.558;2023-08-06T01:24:12;98155.00;;;26.00;80.29
7109;BME280;29079;41.930;25.558;2023-08-06T01:27:04;98152.28;;;26.41;78.49
7109;BME280;29079;41.930;25.558;2023-08-06T01:29:57;98153.50;;;25.56;83.24
7109;BME280;29079;41.930;25.558;2023-08-06T01:32:50;98155.06;;;25.47;83.64
7109;BME280;29079;41.930;25.558;2023-08-06T01:35:40;98128.06;;;25.50;83.17
7109;BME280;29079;41.930;25.558;2023-08-06T01:38:30;98132.59;;;25.29;84.96
7109;BME280;29079;41.930;25.558;2023-08-06T01:41:16;98132.53;;;25.98;79.16
7109;BME280;29079;41.930;25.558;2023-08-06T01:44:03;98141.59;;;25.30;85.45
7109;BME280;29079;41.930;25.558;2023-08-06T01:46:50;98140.97;;;25.07;87.05
7109;BME280;29079;41.930;25.558;2023-08-06T01:49:36;98133.41;;;24.77;89.14
7109;BME280;29079;41.930;25.558;2023-08-06T01:52:22;98132.00;;;25.17;86.13
7109;BME280;29079;41.930;25.558;2023-08-06T01:55:10;98105.03;;;25.26;83.28
7109;BME280;29079;41.930;25.558;2023-08-06T01:57:57;98134.06;;;25.47;85.10
7109;BME280;29079;41.930;25.558;2023-08-06T02:00:45;98135.44;;;24.97;88.59
7109;BME280;29079;41.930;25.558;2023-08-06T02:03:33;98129.81;;;25.19;87.12
7109;BME280;29079;41.930;25.558;2023-08-06T02:06:21;98126.78;;;25.10;87.20
7109;BME280;29079;41.930;25.558;2023-08-06T02:09:09;98133.19;;;25.31;84.95
7109;BME280;29079;41.930;25.558;2023-08-06T02:11:58;98130.47;;;25.31;83.79
7109;BME280;29079;41.930;25.558;2023-08-06T02:14:46;98131.69;;;25.77;82.35
7109;BME280;29079;41.930;25.558;2023-08-06T02:17:34;98129.00;;;25.24;86.52
7109;BME280;29079;41.930;25.558;2023-08-06T02:20:22;98124.44;;;24.81;90.81
7109;BME280;29079;41.930;25.558;2023-08-06T02:23:10;98119.28;;;25.38;87.32
7109;BME280;29079;41.930;25.558;2023-08-06T02:25:59;98128.91;;;25.03;89.62
7109;BME280;29079;41.930;25.558;2023-08-06T02:28:49;98129.13;;;25.44;87.20
7109;BME280;29079;41.930;25.558;2023-08-06T02:31:37;98131.09;;;25.01;89.99
7109;BME280;29079;41.930;25.558;2023-08-06T02:34:25;98128.09;;;25.61;86.45
7109;BME280;29079;41.930;25.558;2023-08-06T02:37:13;98130.22;;;25.43;87.21
7109;BME280;29079;41.930;25.558;2023-08-06T02:40:01;98135.47;;;25.65;84.20
7109;BME280;29079;41.930;25.558;2023-08-06T02:42:50;98141.81;;;25.13;88.78
7109;BME280;29079;41.930;25.558;2023-08-06T02:45:39;98143.00;;;25.32;88.64
7109;BME280;29079;41.930;25.558;2023-08-06T02:48:27;98140.19;;;24.69;92.88
7109;BME280;29079;41.930;25.558;2023-08-06T02:51:16;98135.00;;;24.73;93.12
7109;BME280;29079;41.930;25.558;2023-08-06T02:54:04;98135.31;;;24.44;95.54
7109;BME280;29079;41.930;25.558;2023-08-06T02:56:52;98128.88;;;24.98;91.35
7109;BME280;29079;41.930;25.558;2023-08-06T02:59:40;98128.91;;;25.03;91.37
7109;BME280;29079;41.930;25.558;2023-08-06T03:02:29;98142.25;;;24.94;91.85
7109;BME280;29079;41.930;25.558;2023-08-06T03:05:17;98134.22;;;24.77;92.78
7109;BME280;29079;41.930;25.558;2023-08-06T03:08:05;98127.63;;;24.68;93.64
7109;BME280;29079;41.930;25.558;2023-08-06T03:10:53;98111.81;;;24.70;93.44
7109;BME280;29079;41.930;25.558;2023-08-06T03:13:41;98096.28;;;24.33;95.85
7109;BME280;29079;41.930;25.558;2023-08-06T03:16:29;98127.22;;;24.54;95.87
7109;BME280;29079;41.930;25.558;2023-08-06T03:19:18;98120.50;;;24.62;91.59
7109;BME280;29079;41.930;25.558;2023-08-06T03:22:06;98123.03;;;24.74;94.21
7109;BME280;29079;41.930;25.558;2023-08-06T03:24:54;98125.41;;;24.32;96.35
7109;BME280;29079;41.930;25.558;2023-08-06T03:27:42;98129.59;;;24.40;96.44
7109;BME280;29079;41.930;25.558;2023-08-06T03:30:30;98128.03;;;24.17;98.49
7109;BME280;29079;41.930;25.558;2023-08-06T03:33:18;98124.09;;;24.67;94.65
7109;BME280;29079;41.930;25.558;2023-08-06T03:36:08;98134.06;;;24.94;92.77
7109;BME280;29079;41.930;25.558;2023-08-06T03:38:56;98130.03;;;25.07;91.88
7109;BME280;29079;41.930;25.558;2023-08-06T03:41:44;98140.56;;;24.88;94.11
7109;BME280;29079;41.930;25.558;2023-08-06T03:44:32;98135.00;;;25.15;91.10
7109;BME280;29079;41.930;25.558;2023-08-06T03:47:20;98134.59;;;24.96;90.66
7109;BME280;29079;41.930;25.558;2023-08-06T03:50:08;98142.56;;;25.03;93.55
7109;BME280;29079;41.930;25.558;2023-08-06T03:52:58;98143.06;;;24.95;93.15
7109;BME280;29079;41.930;25.558;2023-08-06T03:55:46;98147.03;;;24.77;94.42
7109;BME280;29079;41.930;25.558;2023-08-06T03:58:34;98162.00;;;24.69;96.00
7109;BME280;29079;41.930;25.558;2023-08-06T04:01:21;98164.53;;;24.81;95.17
7109;BME280;29079;41.930;25.558;2023-08-06T04:04:09;98160.69;;;25.30;91.46
7109;BME280;29079;41.930;25.558;2023-08-06T04:06:57;98160.97;;;24.80;95.01
7109;BME280;29079;41.930;25.558;2023-08-06T04:09:58;98157.09;;;24.39;98.89
7109;BME280;29079;41.930;25.558;2023-08-06T04:12:46;98156.69;;;24.57;97.52
7109;BME280;29079;41.930;25.558;2023-08-06T04:15:34;98161.59;;;24.93;93.96
7109;BME280;29079;41.930;25.558;2023-08-06T04:18:22;98158.56;;;24.51;96.96
7109;BME280;29079;41.930;25.558;2023-08-06T04:21:12;98147.84;;;24.77;92.50
7109;BME280;29079;41.930;25.558;2023-08-06T04:24:00;98154.91;;;24.68;93.52
7109;BME280;29079;41.930;25.558;2023-08-06T04:26:49;98144.75;;;25.01;87.92
7109;BME280;29079;41.930;25.558;2023-08-06T04:29:38;98147.31;;;24.80;92.64
7109;BME280;29079;41.930;25.558;2023-08-06T04:32:26;98143.88;;;24.58;94.75
7109;BME280;29079;41.930;25.558;2023-08-06T04:35:14;98132.31;;;25.26;89.21
7109;BME280;29079;41.930;25.558;2023-08-06T04:38:02;98134.06;;;25.47;87.88
7109;BME280;29079;41.930;25.558;2023-08-06T04:40:50;98129.81;;;24.66;94.26
7109;BME280;29079;41.930;25.558;2023-08-06T04:43:39;98118.41;;;25.27;90.61
7109;BME280;29079;41.930;25.558;2023-08-06T04:46:27;98124.28;;;25.03;92.23
7109;BME280;29079;41.930;25.558;2023-08-06T04:49:15;98111.44;;;24.99;93.84
7109;BME280;29079;41.930;25.558;2023-08-06T04:52:03;98114.78;;;25.11;92.29
7109;BME280;29079;41.930;25.558;2023-08-06T04:54:51;98137.91;;;25.03;93.82
7109;BME280;29079;41.930;25.558;2023-08-06T04:57:39;98134.31;;;25.41;90.71
7109;BME280;29079;41.930;25.558;2023-08-06T05:00:28;98073.81;;;25.01;88.77
7109;BME280;29079;41.930;25.558;2023-08-06T05:03:16;98126.47;;;25.65;86.74
7109;BME280;29079;41.930;25.558;2023-08-06T05:06:03;98126.16;;;25.51;85.59
7109;BME280;29079;41.930;25.558;2023-08-06T05:08:51;98126.22;;;25.08;93.18
7109;BME280;29079;41.930;25.558;2023-08-06T05:11:39;98125.75;;;25.27;92.31
7109;BME280;29079;41.930;25.558;2023-08-06T05:14:26;98130.03;;;25.07;91.66
7109;BME280;29079;41.930;25.558;2023-08-06T05:17:15;98139.25;;;24.96;94.43
7109;BME280;29079;41.930;25.558;2023-08-06T05:20:04;98137.44;;;25.12;91.83
7109;BME280;29079;41.930;25.558;2023-08-06T05:22:52;98105.34;;;24.81;92.66
7109;BME280;29079;41.930;25.558;2023-08-06T05:25:39;98133.19;;;25.31;91.71
7109;BME280;29079;41.930;25.558;2023-08-06T05:28:27;98139.03;;;25.66;89.88
7109;BME280;29079;41.930;25.558;2023-08-06T05:31:15;98136.19;;;25.35;88.62
7109;BME280;29079;41.930;25.558;2023-08-06T05:34:04;98118.53;;;25.58;89.90
7109;BME280;29079;41.930;25.558;2023-08-06T05:36:52;98087.94;;;24.98;91.93
7109;BME280;29079;41.930;25.558;2023-08-06T05:39:40;98108.28;;;25.28;91.67
7109;BME280;29079;41.930;25.558;2023-08-06T05:42:28;98110.16;;;25.17;90.97
7109;BME280;29079;41.930;25.558;2023-08-06T05:45:15;98097.16;;;25.40;88.37
7109;BME280;29079;41.930;25.558;2023-08-06T05:48:04;98106.50;;;25.54;86.93
7109;BME280;29079;41.930;25.558;2023-08-06T05:50:53;98040.66;;;25.40;87.79
7109;BME280;29079;41.930;25.558;2023-08-06T05:53:40;98092.91;;;25.80;88.00
7109;BME280;29079;41.930;25.558;2023-08-06T05:56:28;98085.78;;;25.79;87.72
7109;BME280;29079;41.930;25.558;2023-08-06T05:59:16;98082.47;;;25.56;88.25
7109;BME280;29079;41.930;25.558;2023-08-06T06:02:04;98075.69;;;25.79;87.75
7109;BME280;29079;41.930;25.558;2023-08-06T06:04:51;98074.03;;;25.78;85.65
7109;BME280;29079;41.930;25.558;2023-08-06T06:07:40;98088.75;;;25.57;88.18
7109;BME280;29079;41.930;25.558;2023-08-06T06:10:28;98082.56;;;26.44;81.01
7109;BME280;29079;41.930;25.558;2023-08-06T06:13:16;98101.13;;;26.83;80.33
7109;BME280;29079;41.930;25.558;2023-08-06T06:16:04;98113.69;;;26.89;76.12
7109;BME280;29079;41.930;25.558;2023-08-06T06:18:51;98113.72;;;26.27;83.82
7109;BME280;29079;41.930;25.558;2023-08-06T06:21:41;98119.47;;;26.05;85.13
7109;BME280;29079;41.930;25.558;2023-08-06T06:24:30;98122.47;;;26.03;84.00
7109;BME280;29079;41.930;25.558;2023-08-06T06:27:17;98133.69;;;26.22;83.92
7109;BME280;29079;41.930;25.558;2023-08-06T06:30:07;98133.56;;;25.66;87.79
7109;BME280;29079;41.930;25.558;2023-08-06T06:32:55;98112.28;;;25.68;87.70
7109;BME280;29079;41.930;25.558;2023-08-06T06:35:42;98095.03;;;25.57;87.74
7109;BME280;29079;41.930;25.558;2023-08-06T06:38:30;98124.94;;;26.15;83.23
7109;BME280;29079;41.930;25.558;2023-08-06T06:41:19;98128.66;;;25.68;87.24
7109;BME280;29079;41.930;25.558;2023-08-06T06:44:07;98135.13;;;25.41;89.18
7109;BME280;29079;41.930;25.558;2023-08-06T06:46:54;98168.84;;;25.72;87.14
7109;BME280;29079;41.930;25.558;2023-08-06T06:49:42;98184.88;;;25.59;88.70
7109;BME280;29079;41.930;25.558;2023-08-06T06:52:30;98197.41;;;25.49;88.85
7109;BME280;29079;41.930;25.558;2023-08-06T06:55:18;98160.66;;;25.19;90.27
7109;BME280;29079;41.930;25.558;2023-08-06T06:58:07;98152.03;;;25.38;89.38
7109;BME280;29079;41.930;25.558;2023-08-06T07:00:54;98137.16;;;25.08;90.48
7109;BME280;29079;41.930;25.558;2023-08-06T07:03:42;98108.16;;;25.02;90.26
7109;BME280;29079;41.930;25.558;2023-08-06T07:06:30;98128.38;;;25.59;87.26
7109;BME280;29079;41.930;25.558;2023-08-06T07:09:18;98195.78;;;25.48;88.54
7109;BME280;29079;41.930;25.558;2023-08-06T07:12:06;98232.31;;;25.37;89.46
7109;BME280;29079;41.930;25.558;2023-08-06T07:14:55;98209.53;;;24.78;100.00
7109;BME280;29079;41.930;25.558;2023-08-06T07:17:43;98133.06;;;24.03;100.00
7109;BME280;29079;41.930;25.558;2023-08-06T07:20:31;98114.34;;;23.35;100.00
7109;BME280;29079;41.930;25.558;2023-08-06T07:23:21;98121.34;;;23.75;100.00
7109;BME280;29079;41.930;25.558;2023-08-06T07:26:09;98123.03;;;23.32;100.00
7109;BME280;29079;41.930;25.558;2023-08-06T07:28:56;98139.72;;;22.80;100.00
7109;BME280;29079;41.930;25.558;2023-08-06T07:31:45;98141.13;;;23.21;100.00
7109;BME280;29079;41.930;25.558;2023-08-06T07:34:33;98166.91;;;22.80;100.00
7109;BME280;29079;41.930;25.558;2023-08-06T07:37:21;98165.22;;;22.27;100.00
7109;BME280;29079;41.930;25.558;2023-08-06T07:40:10;98182.69;;;22.15;100.00
7109;BME280;29079;41.930;25.558;2023-08-06T07:42:58;98185.63;;;22.13;100.00
7109;BME280;29079;41.930;25.558;2023-08-06T07:45:46;98176.28;;;21.92;100.00
7109;BME280;29079;41.930;25.558;2023-08-06T07:48:35;98203.88;;;22.01;100.00
7109;BME280;29079;41.930;25.558;2023-08-06T07:51:22;98231.47;;;22.09;100.00
7109;BME280;29079;41.930;25.558;2023-08-06T07:54:10;98217.16;;;21.85;100.00
7109;BME280;29079;41.930;25.558;2023-08-06T07:56:58;98235.25;;;22.08;100.00
7109;BME280;29079;41.930;25.558;2023-08-06T07:59:45;98212.88;;;21.61;100.00
7109;BME280;29079;41.930;25.558;2023-08-06T08:02:33;98199.50;;;21.83;100.00
7109;BME280;29079;41.930;25.558;2023-08-06T08:05:22;98199.75;;;21.98;100.00
7109;BME280;29079;41.930;25.558;2023-08-06T08:08:10;98191.59;;;21.69;100.00
7109;BME280;29079;41.930;25.558;2023-08-06T08:10:59;98175.88;;;21.31;100.00
7109;BME280;29079;41.930;25.558;2023-08-06T08:13:47;98157.78;;;21.60;100.00
7109;BME280;29079;41.930;25.558;2023-08-06T08:16:35;98170.72;;;21.70;100.00
7109;BME280;29079;41.930;25.558;2023-08-06T08:19:25;98175.94;;;21.88;100.00
7109;BME280;29079;41.930;25.558;2023-08-06T08:22:16;98171.22;;;22.13;100.00
7109;BME280;29079;41.930;25.558;2023-08-06T08:25:04;98164.91;;;22.24;100.00
7109;BME280;29079;41.930;25.558;2023-08-06T08:27:52;98153.00;;;22.42;100.00
7109;BME280;29079;41.930;25.558;2023-08-06T08:30:40;98126.56;;;22.54;100.00
7109;BME280;29079;41.930;25.558;2023-08-06T08:33:28;98111.22;;;23.04;100.00
7109;BME280;29079;41.930;25.558;2023-08-06T08:36:16;98109.63;;;23.25;100.00
7109;BME280;29079;41.930;25.558;2023-08-06T08:39:05;98101.88;;;23.61;100.00
7109;BME280;29079;41.930;25.558;2023-08-06T08:41:53;98108.28;;;23.50;100.00
7109;BME280;29079;41.930;25.558;2023-08-06T08:44:42;98111.25;;;23.49;100.00
7109;BME280;29079;41.930;25.558;2023-08-06T08:47:30;98122.59;;;23.90;100.00
7109;BME280;29079;41.930;25.558;2023-08-06T08:50:19;98140.09;;;24.26;99.50
7109;BME280;29079;41.930;25.558;2023-08-06T08:53:08;98134.78;;;24.42;98.60
7109;BME280;29079;41.930;25.558;2023-08-06T08:55:58;98148.22;;;24.54;95.98
7109;BME280;29079;41.930;25.558;2023-08-06T08:58:46;98131.22;;;24.09;97.39
7109;BME280;29079;41.930;25.558;2023-08-06T09:01:34;98140.06;;;24.21;98.93
7109;BME280;29079;41.930;25.558;2023-08-06T09:04:22;98136.88;;;24.62;96.16
7109;BME280;29079;41.930;25.558;2023-08-06T09:07:13;98139.34;;;24.04;97.31
7109;BME280;29079;41.930;25.558;2023-08-06T09:10:07;98135.31;;;24.44;97.33
7109;BME280;29079;41.930;25.558;2023-08-06T09:12:59;98148.69;;;25.26;96.93
7109;BME280;29079;41.930;25.558;2023-08-06T09:15:48;98162.72;;;24.97;99.56
7109;BME280;29079;41.930;25.558;2023-08-06T09:18:39;98142.13;;;25.22;98.64
7109;BME280;29079;41.930;25.558;2023-08-06T09:21:28;98160.16;;;25.28;98.20
7109;BME280;29079;41.930;25.558;2023-08-06T09:24:16;98165.34;;;25.29;97.16
7109;BME280;29079;41.930;25.558;2023-08-06T09:27:04;98160.53;;;25.47;98.91
7109;BME280;29079;41.930;25.558;2023-08-06T09:29:53;98154.88;;;25.69;99.33
7109;BME280;29079;41.930;25.558;2023-08-06T09:32:47;98157.59;;;25.64;97.96
7109;BME280;29079;41.930;25.558;2023-08-06T09:35:35;98139.50;;;25.42;98.20
7109;BME280;29079;41.930;25.558;2023-08-06T09:38:22;98149.72;;;25.83;93.05
7109;BME280;29079;41.930;25.558;2023-08-06T09:41:10;98148.72;;;26.15;92.21
7109;BME280;29079;41.930;25.558;2023-08-06T09:43:58;98144.28;;;25.93;90.96
7109;BME280;29079;41.930;25.558;2023-08-06T09:46:52;98123.22;;;25.94;92.37
7109;BME280;29079;41.930;25.558;2023-08-06T09:49:41;98110.16;;;26.01;94.58
7109;BME280;29079;41.930;25.558;2023-08-06T09:52:31;98112.91;;;26.52;91.08
7109;BME280;29079;41.930;25.558;2023-08-06T09:55:19;98105.25;;;26.49;92.81
7109;BME280;29079;41.930;25.558;2023-08-06T09:58:08;98103.88;;;26.62;89.91
7109;BME280;29079;41.930;25.558;2023-08-06T10:00:57;98117.28;;;26.64;87.84
7109;BME280;29079;41.930;25.558;2023-08-06T10:03:47;98133.97;;;26.72;88.63
7109;BME280;29079;41.930;25.558;2023-08-06T10:06:37;98131.50;;;26.35;88.12
7109;BME280;29079;41.930;25.558;2023-08-06T10:09:25;98130.13;;;26.73;88.39
7109;BME280;29079;41.930;25.558;2023-08-06T10:12:12;98126.00;;;26.66;87.24
7109;BME280;29079;41.930;25.558;2023-08-06T10:15:04;98133.69;;;26.74;85.79
7109;BME280;29079;41.930;25.558;2023-08-06T10:17:56;98109.06;;;26.58;84.30
7109;BME280;29079;41.930;25.558;2023-08-06T10:20:46;98136.13;;;26.86;83.64
7109;BME280;29079;41.930;25.558;2023-08-06T10:23:36;98133.59;;;27.15;84.10
7109;BME280;29079;41.930;25.558;2023-08-06T10:26:25;98139.56;;;27.27;83.13
7109;BME280;29079;41.930;25.558;2023-08-06T10:29:35;98131.44;;;27.02;82.78
7109;BME280;29079;41.930;25.558;2023-08-06T10:32:47;98134.66;;;27.14;81.04
7109;BME280;29079;41.930;25.558;2023-08-06T10:35:36;98137.66;;;27.28;79.31
7109;BME280;29079;41.930;25.558;2023-08-06T10:38:26;98108.78;;;26.86;77.01
7109;BME280;29079;41.930;25.558;2023-08-06T10:41:23;98126.44;;;27.19;73.83
7109;BME280;29079;41.930;25.558;2023-08-06T10:44:15;98125.31;;;27.41;65.70
7109;BME280;29079;41.930;25.558;2023-08-06T10:47:25;98125.53;;;27.44;59.01
7109;BME280;29079;41.930;25.558;2023-08-06T10:50:15;98133.13;;;27.63;64.55
7109;BME280;29079;41.930;25.558;2023-08-06T10:53:04;98130.50;;;27.37;59.91
7109;BME280;29079;41.930;25.558;2023-08-06T10:55:54;98137.88;;;27.32;67.50
7109;BME280;29079;41.930;25.558;2023-08-06T10:58:42;98151.88;;;27.30;68.47
7109;BME280;29079;41.930;25.558;2023-08-06T11:01:32;97931.13;;;25.93;69.24
7109;BME280;29079;41.930;25.558;2023-08-06T11:04:21;98156.69;;;27.64;70.03
7109;BME280;29079;41.930;25.558;2023-08-06T11:07:09;98102.09;;;27.18;69.86
7109;BME280;29079;41.930;25.558;2023-08-06T11:10:01;98081.84;;;27.08;68.41
7109;BME280;29079;41.930;25.558;2023-08-06T11:12:51;98121.94;;;27.54;69.08
7109;BME280;29079;41.930;25.558;2023-08-06T11:15:39;98154.19;;;27.73;66.95
7109;BME280;29079;41.930;25.558;2023-08-06T11:18:26;98158.44;;;28.00;69.26
7109;BME280;29079;41.930;25.558;2023-08-06T11:21:14;98159.94;;;27.71;68.58
7109;BME280;29079;41.930;25.558;2023-08-06T11:24:05;98156.13;;;27.67;67.83
7109;BME280;29079;41.930;25.558;2023-08-06T11:26:53;98169.44;;;27.89;68.53
7109;BME280;29079;41.930;25.558;2023-08-06T11:29:43;98172.97;;;27.95;65.49
7109;BME280;29079;41.930;25.558;2023-08-06T11:32:32;98145.69;;;27.69;63.16
7109;BME280;29079;41.930;25.558;2023-08-06T11:35:21;98181.78;;;27.87;61.80
7109;BME280;29079;41.930;25.558;2023-08-06T11:38:09;98173.88;;;27.80;60.52
7109;BME280;29079;41.930;25.558;2023-08-06T11:40:58;98172.53;;;27.77;60.76
7109;BME280;29079;41.930;25.558;2023-08-06T11:43:46;98186.03;;;27.58;61.45
7109;BME280;29079;41.930;25.558;2023-08-06T11:46:53;98188.81;;;27.48;63.03
7109;BME280;29079;41.930;25.558;2023-08-06T11:49:44;98148.88;;;27.21;64.36
7109;BME280;29079;41.930;25.558;2023-08-06T11:52:33;98170.72;;;27.52;62.78
7109;BME280;29079;41.930;25.558;2023-08-06T11:55:23;98145.81;;;27.33;63.89
7109;BME280;29079;41.930;25.558;2023-08-06T11:58:11;98172.84;;;27.66;62.78
7109;BME280;29079;41.930;25.558;2023-08-06T12:00:59;98180.53;;;27.63;64.72
7109;BME280;29079;41.930;25.558;2023-08-06T12:03:48;98169.25;;;27.75;63.88
7109;BME280;29079;41.930;25.558;2023-08-06T12:06:42;98167.28;;;27.81;65.38
7109;BME280;29079;41.930;25.558;2023-08-06T12:09:30;98170.56;;;27.83;63.36
7109;BME280;29079;41.930;25.558;2023-08-06T12:12:18;98172.97;;;27.95;63.30
7109;BME280;29079;41.930;25.558;2023-08-06T12:15:06;98154.13;;;27.83;62.18
7109;BME280;29079;41.930;25.558;2023-08-06T12:17:54;98152.97;;;27.94;64.04
7109;BME280;29079;41.930;25.558;2023-08-06T12:20:44;98094.94;;;27.82;63.73
7109;BME280;29079;41.930;25.558;2023-08-06T12:23:31;98111.31;;;27.42;64.44
7109;BME280;29079;41.930;25.558;2023-08-06T12:26:19;98117.88;;;27.47;66.11
7109;BME280;29079;41.930;25.558;2023-08-06T12:29:07;98167.09;;;27.67;65.39
7109;BME280;29079;41.930;25.558;2023-08-06T12:31:55;98174.69;;;27.86;64.91
7109;BME280;29079;41.930;25.558;2023-08-06T12:34:43;98177.84;;;28.08;67.53
7109;BME280;29079;41.930;25.558;2023-08-06T12:37:35;98161.47;;;27.98;68.72
7109;BME280;29079;41.930;25.558;2023-08-06T12:40:25;98165.66;;;27.80;68.47
7109;BME280;29079;41.930;25.558;2023-08-06T12:43:23;98159.66;;;27.73;68.85
7109;BME280;29079;41.930;25.558;2023-08-06T12:46:10;98159.44;;;28.14;67.84
7109;BME280;29079;41.930;25.558;2023-08-06T12:48:59;98099.44;;;27.62;66.08
7109;BME280;29079;41.930;25.558;2023-08-06T12:51:47;98131.47;;;27.62;66.69
7109;BME280;29079;41.930;25.558;2023-08-06T12:54:36;98158.44;;;28.00;67.42
7109;BME280;29079;41.930;25.558;2023-08-06T12:57:24;98078.75;;;27.36;65.52
7109;BME280;29079;41.930;25.558;2023-08-06T13:00:32;98072.63;;;27.54;67.31
7109;BME280;29079;41.930;25.558;2023-08-06T13:03:20;98202.38;;;27.79;66.30
7109;BME280;29079;41.930;25.558;2023-08-06T13:06:08;98198.47;;;26.27;92.46
7109;BME280;29079;41.930;25.558;2023-08-06T13:08:56;98224.63;;;25.34;100.00
7109;BME280;29079;41.930;25.558;2023-08-06T13:11:46;98219.44;;;24.90;100.00
7109;BME280;29079;41.930;25.558;2023-08-06T13:14:36;98204.91;;;25.27;100.00
7109;BME280;29079;41.930;25.558;2023-08-06T13:17:24;98200.94;;;24.97;100.00
7109;BME280;29079;41.930;25.558;2023-08-06T13:20:13;98198.63;;;24.78;100.00
7109;BME280;29079;41.930;25.558;2023-08-06T13:23:05;98201.72;;;25.35;100.00
7109;BME280;29079;41.930;25.558;2023-08-06T13:25:53;98204.06;;;25.74;100.00
7109;BME280;29079;41.930;25.558;2023-08-06T13:28:43;98204.75;;;25.39;100.00
7109;BME280;29079;41.930;25.558;2023-08-06T13:31:31;98201.00;;;25.55;100.00
7109;BME280;29079;41.930;25.558;2023-08-06T13:34:18;98193.66;;;25.13;100.00
7109;BME280;29079;41.930;25.558;2023-08-06T13:37:06;98197.34;;;24.96;100.00
7109;BME280;29079;41.930;25.558;2023-08-06T13:39:54;98184.44;;;24.76;100.00
7109;BME280;29079;41.930;25.558;2023-08-06T13:42:41;98189.94;;;24.87;100.00
7109;BME280;29079;41.930;25.558;2023-08-06T13:45:31;98197.25;;;25.18;100.00
7109;BME280;29079;41.930;25.558;2023-08-06T13:48:20;98196.41;;;25.18;100.00
7109;BME280;29079;41.930;25.558;2023-08-06T13:51:08;98194.19;;;25.10;100.00
7109;BME280;29079;41.930;25.558;2023-08-06T13:53:56;98188.38;;;24.96;100.00
7109;BME280;29079;41.930;25.558;2023-08-06T13:56:44;98189.53;;;25.10;100.00
7109;BME280;29079;41.930;25.558;2023-08-06T13:59:32;98195.22;;;25.03;100.00
7109;BME280;29079;41.930;25.558;2023-08-06T14:02:22;98188.97;;;25.03;100.00
7109;BME280;29079;41.930;25.558;2023-08-06T14:05:10;98161.47;;;24.72;100.00
7109;BME280;29079;41.930;25.558;2023-08-06T14:07:58;98184.25;;;24.93;100.00
7109;BME280;29079;41.930;25.558;2023-08-06T14:10:45;98172.94;;;25.75;100.00
7109;BME280;29079;41.930;25.558;2023-08-06T14:13:33;98163.03;;;25.59;100.00
7109;BME280;29079;41.930;25.558;2023-08-06T14:16:21;98161.13;;;25.54;100.00
7109;BME280;29079;41.930;25.558;2023-08-06T14:19:10;98167.88;;;25.41;100.00
7109;BME280;29079;41.930;25.558;2023-08-06T14:21:58;98164.72;;;25.65;100.00
7109;BME280;29079;41.930;25.558;2023-08-06T14:24:45;98167.03;;;26.19;100.00
7109;BME280;29079;41.930;25.558;2023-08-06T14:27:34;98173.75;;;25.76;100.00
7109;BME280;29079;41.930;25.558;2023-08-06T14:30:22;98159.25;;;25.70;100.00
7109;BME280;29079;41.930;25.558;2023-08-06T14:33:09;98179.59;;;26.15;100.00
7109;BME280;29079;41.930;25.558;2023-08-06T14:36:14;98186.22;;;26.61;100.00
7109;BME280;29079;41.930;25.558;2023-08-06T14:39:02;98165.59;;;25.81;100.00
7109;BME280;29079;41.930;25.558;2023-08-06T14:41:49;98191.69;;;25.51;100.00
7109;BME280;29079;41.930;25.558;2023-08-06T14:44:37;98195.28;;;25.62;100.00
7109;BME280;29079;41.930;25.558;2023-08-06T14:47:25;98198.22;;;25.50;100.00
7109;BME280;29079;41.930;25.558;2023-08-06T14:50:13;98207.31;;;25.61;100.00